createdAt,value
2022-11-29T00:01:33.797Z,90.00
2022-11-29T00:04:01.296Z,89.80
2022-11-29T00:06:30.949Z,90.00
2022-11-29T00:09:02.022Z,90.10
2022-11-29T00:11:50.914Z,90.00
2022-11-29T00:14:19.186Z,90.00
2022-11-29T00:16:50.361Z,90.00
2022-11-29T00:19:17.001Z,90.00
2022-11-29T00:21:43.634Z,90.10
2022-11-29T00:24:10.308Z,90.00
2022-11-29T00:26:39.827Z,90.00
2022-11-29T00:29:06.691Z,90.00
2022-11-29T00:31:34.014Z,90.10
2022-11-29T00:34:03.400Z,90.00
2022-11-29T00:36:30.125Z,90.10
2022-11-29T00:38:56.795Z,90.10
2022-11-29T00:41:23.381Z,90.20
2022-11-29T00:43:50.037Z,90.20
2022-11-29T00:46:16.906Z,90.20
2022-11-29T00:48:43.561Z,90.20
2022-11-29T00:51:10.374Z,90.20
2022-11-29T00:53:37.686Z,90.20
2022-11-29T00:56:05.520Z,90.20
2022-11-29T00:58:33.230Z,90.20
2022-11-29T01:00:59.873Z,90.00
2022-11-29T01:03:26.542Z,90.00
2022-11-29T01:05:53.597Z,90.00
2022-11-29T01:08:20.317Z,90.00
2022-11-29T01:10:46.984Z,90.00
2022-11-29T01:13:13.635Z,90.10
2022-11-29T01:15:40.515Z,90.10
2022-11-29T01:18:07.159Z,90.20
2022-11-29T01:20:33.733Z,90.20
2022-11-29T01:23:00.337Z,90.10
2022-11-29T01:25:27.105Z,90.00
2022-11-29T01:27:54.642Z,90.00
2022-11-29T01:30:21.398Z,90.10
2022-11-29T01:32:48.051Z,90.10
2022-11-29T01:35:14.646Z,90.10
2022-11-29T01:37:41.263Z,90.10
2022-11-29T01:40:08.423Z,90.00
2022-11-29T01:42:35.066Z,90.10
2022-11-29T01:45:20.043Z,90.10
2022-11-29T01:47:49.178Z,90.10
2022-11-29T01:50:16.421Z,90.00
2022-11-29T01:52:43.750Z,90.10
2022-11-29T01:55:10.653Z,90.00
2022-11-29T01:57:40.585Z,90.00
2022-11-29T02:00:14.135Z,89.90
2022-11-29T02:02:48.821Z,90.00
2022-11-29T02:05:18.557Z,90.00
2022-11-29T02:07:48.340Z,89.50
2022-11-29T02:10:16.402Z,90.10
2022-11-29T02:13:11.663Z,90.10
2022-11-29T02:15:45.644Z,90.00
2022-11-29T02:18:22.434Z,90.00
2022-11-29T02:21:13.777Z,90.00
2022-11-29T02:23:58.624Z,89.80
2022-11-29T02:26:53.845Z,89.90
2022-11-29T02:29:48.211Z,90.00
2022-11-29T02:32:56.393Z,90.00
2022-11-29T02:35:47.209Z,89.50
2022-11-29T02:38:25.861Z,89.90
2022-11-29T02:41:14.455Z,89.80
2022-11-29T02:43:59.841Z,89.80
2022-11-29T02:47:01.771Z,89.80
2022-11-29T02:49:56.327Z,90.00
2022-11-29T02:53:04.445Z,89.90
2022-11-29T02:56:07.989Z,90.00
2022-11-29T02:59:12.708Z,90.00
2022-11-29T03:01:58.651Z,90.00
2022-11-29T03:04:32.795Z,89.70
2022-11-29T03:07:25.606Z,89.70
2022-11-29T03:10:04.099Z,90.00
2022-11-29T03:12:41.234Z,90.00
2022-11-29T03:15:41.366Z,90.00
2022-11-29T03:18:26.337Z,89.90
2022-11-29T03:20:55.697Z,89.80
2022-11-29T03:23:27.465Z,89.90
2022-11-29T03:25:59.511Z,90.00
2022-11-29T03:28:29.634Z,89.70
2022-11-29T03:31:06.992Z,90.00
2022-11-29T03:34:00.178Z,90.00
2022-11-29T03:37:17.223Z,90.00
2022-11-29T03:39:59.317Z,89.70
2022-11-29T03:42:49.066Z,90.00
2022-11-29T03:45:43.457Z,89.90
2022-11-29T03:48:23.733Z,89.90
2022-11-29T03:50:56.474Z,90.00
2022-11-29T03:53:42.207Z,90.00
2022-11-29T03:56:27.531Z,90.00
2022-11-29T03:59:13.279Z,90.00
2022-11-29T04:02:01.049Z,90.00
2022-11-29T04:04:48.894Z,90.10
2022-11-29T04:07:21.452Z,90.00
2022-11-29T04:10:08.988Z,89.90
2022-11-29T04:13:03.590Z,89.90
2022-11-29T04:16:03.023Z,89.80
2022-11-29T04:19:07.134Z,89.70
2022-11-29T04:22:11.170Z,89.90
2022-11-29T04:25:05.113Z,89.60
2022-11-29T04:27:43.559Z,89.90
2022-11-29T04:30:16.445Z,89.90
2022-11-29T04:33:20.631Z,89.90
2022-11-29T04:36:30.674Z,89.90
2022-11-29T04:39:05.794Z,89.90
2022-11-29T04:42:13.831Z,90.00
2022-11-29T04:45:06.510Z,89.80
2022-11-29T04:47:51.824Z,89.90
2022-11-29T04:50:27.130Z,90.00
2022-11-29T04:53:30.745Z,90.30
2022-11-29T04:56:21.365Z,90.00
2022-11-29T04:59:17.748Z,89.90
2022-11-29T05:02:13.647Z,89.80
2022-11-29T05:04:49.002Z,89.90
2022-11-29T05:07:27.477Z,89.90
2022-11-29T05:10:03.107Z,89.90
2022-11-29T05:12:53.106Z,89.80
2022-11-29T05:15:58.780Z,90.00
2022-11-29T05:18:28.582Z,90.00
2022-11-29T05:21:36.790Z,89.90
2022-11-29T05:24:21.979Z,89.80
2022-11-29T05:27:17.535Z,89.70
2022-11-29T05:29:59.197Z,90.00
2022-11-29T05:32:33.860Z,90.00
2022-11-29T05:35:08.734Z,89.90
2022-11-29T05:38:10.742Z,89.90
2022-11-29T05:40:56.729Z,89.70
2022-11-29T05:43:54.094Z,90.00
2022-11-29T05:46:25.049Z,89.90
2022-11-29T05:49:29.265Z,90.00
2022-11-29T05:52:05.998Z,89.70
2022-11-29T05:55:14.471Z,89.50
2022-11-29T05:58:02.422Z,90.00
2022-11-29T06:00:43.590Z,89.90
2022-11-29T06:03:47.572Z,90.00
2022-11-29T06:06:39.174Z,89.80
2022-11-29T06:09:26.134Z,90.10
2022-11-29T06:11:57.555Z,90.00
2022-11-29T06:14:45.661Z,90.10
2022-11-29T06:17:39.294Z,90.10
2022-11-29T06:20:19.931Z,90.00
2022-11-29T06:23:19.693Z,89.90
2022-11-29T06:26:07.923Z,90.00
2022-11-29T06:28:54.702Z,90.20
2022-11-29T06:31:27.642Z,90.20
2022-11-29T06:34:20.259Z,90.20
2022-11-29T06:37:11.071Z,90.10
2022-11-29T06:39:38.018Z,90.10
2022-11-29T06:42:04.701Z,90.10
2022-11-29T06:44:31.571Z,90.10
2022-11-29T06:47:16.638Z,90.00
2022-11-29T06:49:53.470Z,90.00
2022-11-29T06:52:30.474Z,90.00
2022-11-29T06:55:02.991Z,90.00
2022-11-29T06:58:06.306Z,89.90
2022-11-29T07:00:51.992Z,89.80
2022-11-29T07:03:42.082Z,90.00
2022-11-29T07:06:22.162Z,90.00
2022-11-29T07:09:09.782Z,90.00
2022-11-29T07:11:36.797Z,90.00
2022-11-29T07:14:03.717Z,90.00
2022-11-29T07:16:33.821Z,90.00
2022-11-29T07:19:09.122Z,90.00
2022-11-29T07:22:05.583Z,89.80
2022-11-29T07:24:43.081Z,89.60
2022-11-29T07:27:23.884Z,89.90
2022-11-29T07:30:05.058Z,89.90
2022-11-29T07:32:52.123Z,89.70
2022-11-29T07:35:43.357Z,89.90
2022-11-29T07:38:28.392Z,90.00
2022-11-29T07:41:08.866Z,90.00
2022-11-29T07:43:57.230Z,89.80
2022-11-29T07:46:25.487Z,89.90
2022-11-29T07:48:52.153Z,89.90
2022-11-29T07:51:18.794Z,89.80
2022-11-29T07:53:45.413Z,89.90
2022-11-29T07:56:16.308Z,89.80
2022-11-29T07:58:43.079Z,90.30
2022-11-29T08:01:09.744Z,89.90
2022-11-29T08:03:36.462Z,89.60
2022-11-29T08:06:03.807Z,89.80
2022-11-29T08:08:30.436Z,89.70
2022-11-29T08:10:57.034Z,89.80
2022-11-29T08:13:23.627Z,89.50
2022-11-29T08:15:50.501Z,89.80
2022-11-29T08:18:17.859Z,89.60
2022-11-29T08:20:46.147Z,89.40
2022-11-29T08:23:13.635Z,89.50
2022-11-29T08:25:40.677Z,89.30
2022-11-29T08:28:07.323Z,89.60
2022-11-29T08:30:33.959Z,89.50
2022-11-29T08:33:00.635Z,89.30
2022-11-29T08:35:27.413Z,89.70
2022-11-29T08:37:54.622Z,89.70
2022-11-29T08:40:21.360Z,89.20
2022-11-29T08:42:47.932Z,89.60
2022-11-29T08:45:14.657Z,89.50
2022-11-29T08:47:42.379Z,89.50
2022-11-29T08:50:14.210Z,89.40
2022-11-29T08:53:01.114Z,89.60
2022-11-29T08:55:31.652Z,89.60
2022-11-29T08:58:04.633Z,90.20
2022-11-29T09:00:32.906Z,89.70
2022-11-29T09:03:19.482Z,89.50
2022-11-29T09:05:46.126Z,89.20
2022-11-29T09:08:13.126Z,89.30
2022-11-29T09:10:40.783Z,89.50
2022-11-29T09:13:09.486Z,89.40
2022-11-29T09:15:41.785Z,89.00
2022-11-29T09:18:08.410Z,91.90
2022-11-29T09:20:35.443Z,92.30
2022-11-29T09:23:02.691Z,92.30
2022-11-29T09:25:29.306Z,91.10
2022-11-29T09:27:59.048Z,91.20
2022-11-29T09:30:26.401Z,90.90
2022-11-29T09:32:53.024Z,90.60
2022-11-29T09:35:19.647Z,90.30
2022-11-29T09:37:46.286Z,89.30
2022-11-29T09:40:19.486Z,89.70
2022-11-29T09:42:46.055Z,88.60
2022-11-29T09:45:24.215Z,88.70
2022-11-29T09:48:03.209Z,88.30
2022-11-29T09:50:34.193Z,87.90
2022-11-29T09:53:18.886Z,87.40
2022-11-29T09:56:05.496Z,86.80
2022-11-29T09:58:41.823Z,87.10
2022-11-29T10:01:14.190Z,86.40
2022-11-29T10:03:51.901Z,86.50
2022-11-29T10:06:25.417Z,87.10
2022-11-29T10:08:56.249Z,86.70
2022-11-29T10:11:36.814Z,85.80
2022-11-29T10:14:17.863Z,85.80
2022-11-29T10:16:50.845Z,86.10
2022-11-29T10:19:21.049Z,84.80
2022-11-29T10:21:58.984Z,84.80
2022-11-29T10:24:28.499Z,84.20
2022-11-29T10:26:55.373Z,84.50
2022-11-29T10:29:23.122Z,84.90
2022-11-29T10:31:49.980Z,84.10
2022-11-29T10:34:22.222Z,85.20
2022-11-29T10:37:13.964Z,85.40
2022-11-29T10:39:59.256Z,85.80
2022-11-29T10:42:47.151Z,86.20
2022-11-29T10:45:19.805Z,86.30
2022-11-29T10:47:47.747Z,86.20
2022-11-29T10:50:23.694Z,86.00
2022-11-29T10:52:50.342Z,86.30
2022-11-29T10:55:17.898Z,86.20
2022-11-29T10:58:11.018Z,86.40
2022-11-29T11:00:53.221Z,86.10
2022-11-29T11:03:31.873Z,86.50
2022-11-29T11:06:08.325Z,86.70
2022-11-29T11:08:36.267Z,86.70
2022-11-29T11:11:05.877Z,86.70
2022-11-29T11:13:33.706Z,86.70
2022-11-29T11:16:09.597Z,85.40
2022-11-29T11:18:38.566Z,85.80
2022-11-29T11:21:10.503Z,86.60
2022-11-29T11:23:45.376Z,85.90
2022-11-29T11:26:14.444Z,86.50
2022-11-29T11:28:49.452Z,86.70
2022-11-29T11:31:25.428Z,87.70
2022-11-29T11:33:52.063Z,86.30
2022-11-29T11:36:21.654Z,86.60
2022-11-29T11:39:11.628Z,86.40
2022-11-29T11:42:01.148Z,86.50
2022-11-29T11:44:50.255Z,86.80
2022-11-29T11:47:21.638Z,86.40
2022-11-29T11:49:51.711Z,86.60
2022-11-29T11:52:42.869Z,86.70
2022-11-29T11:55:21.820Z,86.60
2022-11-29T11:58:09.724Z,86.80
2022-11-29T12:01:04.017Z,86.70
2022-11-29T12:03:49.342Z,86.90
2022-11-29T12:06:27.908Z,87.70
2022-11-29T12:09:19.231Z,87.90
2022-11-29T12:12:04.383Z,87.70
2022-11-29T12:15:03.026Z,87.20
2022-11-29T12:17:52.661Z,87.40
2022-11-29T12:20:28.292Z,87.30
2022-11-29T12:23:13.026Z,87.30
2022-11-29T12:25:48.635Z,87.50
2022-11-29T12:28:20.692Z,87.60
2022-11-29T12:31:11.381Z,87.40
2022-11-29T12:34:05.406Z,86.50
2022-11-29T12:36:58.349Z,86.80
2022-11-29T12:39:52.341Z,86.70
2022-11-29T12:43:04.108Z,87.10
2022-11-29T12:45:33.574Z,87.20
2022-11-29T12:48:05.431Z,87.30
2022-11-29T12:50:44.227Z,87.50
2022-11-29T12:53:32.483Z,87.30
2022-11-29T12:56:22.008Z,87.60
2022-11-29T12:58:51.634Z,87.40
2022-11-29T13:01:27.250Z,87.00
2022-11-29T13:04:38.737Z,87.30
2022-11-29T13:07:22.744Z,87.20
2022-11-29T13:10:18.067Z,87.10
2022-11-29T13:12:56.506Z,87.30
2022-11-29T13:15:38.069Z,87.50
2022-11-29T13:18:40.407Z,87.20
2022-11-29T13:21:06.937Z,87.30
2022-11-29T13:24:14.737Z,87.10
2022-11-29T13:26:42.505Z,86.90
2022-11-29T13:29:15.646Z,87.30
2022-11-29T13:31:43.127Z,87.10
2022-11-29T13:34:16.132Z,87.10
2022-11-29T13:37:01.615Z,86.90
2022-11-29T13:39:52.779Z,86.80
2022-11-29T13:42:37.150Z,86.90
2022-11-29T13:45:09.645Z,86.50
2022-11-29T13:47:49.476Z,86.80
2022-11-29T13:50:43.706Z,86.60
2022-11-29T13:53:19.515Z,86.40
2022-11-29T13:56:01.356Z,86.70
2022-11-29T13:58:27.880Z,87.50
2022-11-29T14:01:14.391Z,86.50
2022-11-29T14:03:42.846Z,86.60
2022-11-29T14:06:38.045Z,86.50
2022-11-29T14:09:27.346Z,86.00
2022-11-29T14:12:18.819Z,86.50
2022-11-29T14:14:58.199Z,86.80
2022-11-29T14:17:35.650Z,86.70
2022-11-29T14:20:28.395Z,86.70
2022-11-29T14:23:04.070Z,86.50
2022-11-29T14:28:18.335Z,86.70
2022-11-29T14:30:44.865Z,86.60
2022-11-29T14:33:21.130Z,86.50
2022-11-29T14:35:58.668Z,86.30
2022-11-29T14:38:41.288Z,86.30
2022-11-29T14:41:38.630Z,86.10
2022-11-29T14:44:15.962Z,85.90
2022-11-29T14:46:43.096Z,86.10
2022-11-29T14:49:22.284Z,86.10
2022-11-29T14:52:28.583Z,85.90
2022-11-29T14:55:16.544Z,85.70
2022-11-29T14:58:01.212Z,86.00
2022-11-29T15:00:32.617Z,86.10
2022-11-29T15:03:36.752Z,86.10
2022-11-29T15:06:06.076Z,86.00
2022-11-29T15:08:32.595Z,86.00
2022-11-29T15:11:26.053Z,86.00
2022-11-29T15:14:02.841Z,85.60
2022-11-29T15:16:38.759Z,85.40
2022-11-29T15:19:30.768Z,85.70
2022-11-29T15:22:20.041Z,85.90
2022-11-29T15:25:04.532Z,85.90
2022-11-29T15:27:31.245Z,85.90
2022-11-29T15:29:59.855Z,85.80
2022-11-29T15:32:30.945Z,85.80
2022-11-29T15:34:58.407Z,85.40
2022-11-29T15:37:30.847Z,85.60
2022-11-29T15:40:03.426Z,85.60
2022-11-29T15:42:40.470Z,85.50
2022-11-29T15:45:29.913Z,85.60
2022-11-29T15:48:16.336Z,85.60
2022-11-29T15:51:04.418Z,85.60
2022-11-29T15:54:00.436Z,85.60
2022-11-29T15:56:59.622Z,85.40
2022-11-29T15:59:40.768Z,85.40
2022-11-29T16:02:23.039Z,85.40
2022-11-29T16:04:54.282Z,85.40
2022-11-29T16:07:24.065Z,85.60
2022-11-29T16:10:01.658Z,85.80
2022-11-29T16:12:28.319Z,85.90
2022-11-29T16:14:58.002Z,86.00
2022-11-29T16:17:30.706Z,86.00
2022-11-29T16:20:06.194Z,85.80
2022-11-29T16:22:32.866Z,86.40
2022-11-29T16:25:04.094Z,86.50
2022-11-29T16:27:35.954Z,86.80
2022-11-29T16:30:03.630Z,86.90
2022-11-29T16:32:53.213Z,86.70
2022-11-29T16:35:24.476Z,86.80
2022-11-29T16:37:51.515Z,86.90
2022-11-29T16:40:25.420Z,87.00
2022-11-29T16:43:03.988Z,87.00
2022-11-29T16:45:41.344Z,86.70
2022-11-29T16:48:23.142Z,86.80
2022-11-29T16:51:13.202Z,86.70
2022-11-29T16:53:47.544Z,87.00
2022-11-29T16:56:16.541Z,86.90
2022-11-29T16:59:21.066Z,86.90
2022-11-29T17:01:32.768Z,86.90
2022-11-29T17:04:00.635Z,87.00
2022-11-29T17:06:28.972Z,86.80
2022-11-29T17:08:57.775Z,86.90
2022-11-29T17:11:24.816Z,86.80
2022-11-29T17:13:51.954Z,87.10
2022-11-29T17:16:21.502Z,87.00
2022-11-29T17:18:48.818Z,87.10
2022-11-29T17:21:17.680Z,87.20
2022-11-29T17:23:45.098Z,87.10
2022-11-29T17:26:11.745Z,86.90
2022-11-29T17:28:40.364Z,86.90
2022-11-29T17:31:15.126Z,87.20
2022-11-29T17:33:42.139Z,87.10
2022-11-29T17:36:11.208Z,87.20
2022-11-29T17:38:38.066Z,87.10
2022-11-29T17:41:13.387Z,87.20
2022-11-29T17:43:40.916Z,87.10
2022-11-29T17:46:19.482Z,87.20
2022-11-29T17:48:46.295Z,87.20
2022-11-29T17:51:43.696Z,87.30
2022-11-29T17:54:04.319Z,87.40
2022-11-29T17:56:31.291Z,87.50
2022-11-29T17:59:00.326Z,87.30
2022-11-29T18:01:29.143Z,87.20
2022-11-29T18:03:58.406Z,87.10
2022-11-29T18:06:27.185Z,87.20
2022-11-29T18:08:59.104Z,87.30
2022-11-29T18:11:42.920Z,87.20
2022-11-29T18:14:15.537Z,87.10
2022-11-29T18:16:42.760Z,86.90
2022-11-29T18:19:12.552Z,87.30
2022-11-29T18:21:39.449Z,87.30
2022-11-29T18:24:07.363Z,87.80
2022-11-29T18:26:35.333Z,87.50
2022-11-29T18:29:02.469Z,87.30
2022-11-29T18:31:31.602Z,87.40
2022-11-29T18:34:00.446Z,87.70
2022-11-29T18:36:30.023Z,87.70
2022-11-29T18:39:02.764Z,87.50
2022-11-29T18:41:30.521Z,87.50
2022-11-29T18:44:05.901Z,87.70
2022-11-29T18:46:33.271Z,87.50
2022-11-29T18:49:01.019Z,87.50
2022-11-29T18:51:29.189Z,87.60
2022-11-29T18:53:56.459Z,87.30
2022-11-29T18:56:25.425Z,87.30
2022-11-29T18:59:14.267Z,87.30
2022-11-29T19:01:42.441Z,87.40
2022-11-29T19:04:12.149Z,87.30
2022-11-29T19:06:40.246Z,87.40
2022-11-29T19:09:11.121Z,87.50
2022-11-29T19:11:37.822Z,87.60
2022-11-29T19:14:09.353Z,87.50
2022-11-29T19:16:35.919Z,87.60
2022-11-29T19:19:02.620Z,87.40
2022-11-29T19:21:31.943Z,87.10
2022-11-29T19:24:13.931Z,87.50
2022-11-29T19:26:42.838Z,87.40
2022-11-29T19:29:09.805Z,87.50
2022-11-29T19:31:39.146Z,87.40
2022-11-29T19:34:06.270Z,87.40
2022-11-29T19:36:32.851Z,87.50
2022-11-29T19:39:01.412Z,87.30
2022-11-29T19:41:30.370Z,87.40
2022-11-29T19:43:59.390Z,87.60
2022-11-29T19:46:28.671Z,87.50
2022-11-29T19:48:56.914Z,87.60
2022-11-29T19:51:24.846Z,87.70
2022-11-29T19:53:54.093Z,87.60
2022-11-29T19:56:21.154Z,87.40
2022-11-29T19:58:47.789Z,87.60
2022-11-29T20:01:16.919Z,87.60
2022-11-29T20:03:44.907Z,87.70
2022-11-29T20:06:13.530Z,87.60
2022-11-29T20:08:41.002Z,87.30
2022-11-29T20:11:26.158Z,87.50
2022-11-29T20:13:57.594Z,87.60
2022-11-29T20:16:25.084Z,87.30
2022-11-29T20:18:52.892Z,87.40
2022-11-29T20:21:31.527Z,87.50
2022-11-29T20:24:03.320Z,87.60
2022-11-29T20:26:30.536Z,87.70
2022-11-29T20:28:57.180Z,87.40
2022-11-29T20:31:24.050Z,87.80
2022-11-29T20:33:52.704Z,87.60
2022-11-29T20:36:37.615Z,87.50
2022-11-29T20:39:34.980Z,87.40
2022-11-29T20:42:46.281Z,87.40
2022-11-29T20:45:14.593Z,87.20
2022-11-29T20:47:50.586Z,87.50
2022-11-29T20:50:23.850Z,87.50
2022-11-29T20:53:14.462Z,87.40
2022-11-29T20:55:46.442Z,87.30
2022-11-29T20:58:15.259Z,87.20
2022-11-29T21:00:41.900Z,87.10
2022-11-29T21:03:08.464Z,87.10
2022-11-29T21:05:37.788Z,87.30
2022-11-29T21:08:04.673Z,87.50
2022-11-29T21:10:31.310Z,87.40
2022-11-29T21:12:58.314Z,87.30
2022-11-29T21:15:25.213Z,87.40
2022-11-29T21:17:52.503Z,87.40
2022-11-29T21:20:24.601Z,87.40
2022-11-29T21:23:06.211Z,87.40
2022-11-29T21:25:48.270Z,87.50
2022-11-29T21:28:15.474Z,87.50
2022-11-29T21:30:43.093Z,87.60
2022-11-29T21:33:11.320Z,87.70
2022-11-29T21:35:39.820Z,87.70
2022-11-29T21:38:10.670Z,87.60
2022-11-29T21:40:37.270Z,87.60
2022-11-29T21:43:03.855Z,87.50
2022-11-29T21:45:30.451Z,87.70
2022-11-29T21:48:00.705Z,87.60
2022-11-29T21:50:27.312Z,87.60
2022-11-29T21:52:53.923Z,87.60
2022-11-29T21:55:20.525Z,87.60
2022-11-29T21:57:47.110Z,88.50
2022-11-29T22:00:14.347Z,87.70
2022-11-29T22:02:41.120Z,87.70
2022-11-29T22:05:09.470Z,87.60
2022-11-29T22:07:36.159Z,87.60
2022-11-29T22:10:09.984Z,87.70
2022-11-29T22:12:45.725Z,87.70
2022-11-29T22:15:24.243Z,87.30
2022-11-29T22:17:51.717Z,87.70
2022-11-29T22:20:18.334Z,88.50
2022-11-29T22:22:45.323Z,87.50
2022-11-29T22:25:11.940Z,87.60
2022-11-29T22:27:38.534Z,87.60
2022-11-29T22:30:06.066Z,87.60
2022-11-29T22:32:34.319Z,87.80
2022-11-29T22:35:01.113Z,88.00
2022-11-29T22:37:28.287Z,88.00
2022-11-29T22:39:54.942Z,87.50
2022-11-29T22:42:21.572Z,87.80
2022-11-29T22:44:48.421Z,87.80
2022-11-29T22:47:15.215Z,87.80
2022-11-29T22:49:42.038Z,88.00
2022-11-29T22:52:08.676Z,88.10
2022-11-29T22:54:35.295Z,87.90
2022-11-29T22:57:01.848Z,87.90
2022-11-29T22:59:28.438Z,87.90
2022-11-29T23:01:55.060Z,88.00
2022-11-29T23:04:21.651Z,88.20
2022-11-29T23:06:48.274Z,87.80
2022-11-29T23:09:19.746Z,88.30
2022-11-29T23:11:50.820Z,88.40
2022-11-29T23:14:17.690Z,88.40
2022-11-29T23:16:44.393Z,88.20
2022-11-29T23:19:11.021Z,88.80
2022-11-29T23:21:39.622Z,88.40
2022-11-29T23:24:06.755Z,88.50
2022-11-29T23:26:39.816Z,88.40
2022-11-29T23:29:10.274Z,88.40
2022-11-29T23:31:37.413Z,88.40
2022-11-29T23:34:04.559Z,88.20
2022-11-29T23:36:31.431Z,88.30
2022-11-29T23:38:58.089Z,88.30
2022-11-29T23:41:24.897Z,88.40
2022-11-29T23:43:51.513Z,88.40
2022-11-29T23:46:20.490Z,88.30
2022-11-29T23:48:48.134Z,88.30
2022-11-29T23:51:15.777Z,88.50
2022-11-29T23:53:42.688Z,88.50
2022-11-29T23:56:15.454Z,88.50
2022-11-29T23:58:43.027Z,88.40
